createdAt,value
2023-03-06T00:01:21.427Z,95.08
2023-03-06T00:03:29.814Z,95.03
2023-03-06T00:05:38.008Z,95.35
2023-03-06T00:07:46.516Z,94.68
2023-03-06T00:09:57.123Z,95.18
2023-03-06T00:12:05.023Z,94.28
2023-03-06T00:14:12.951Z,93.73
2023-03-06T00:16:20.840Z,94.27
2023-03-06T00:18:28.722Z,95.28
2023-03-06T00:20:37.828Z,95.43
2023-03-06T00:22:46.095Z,94.81
2023-03-06T00:24:56.961Z,95.17
2023-03-06T00:27:21.676Z,95.85
2023-03-06T00:29:33.341Z,96.39
2023-03-06T00:31:41.216Z,96.74
2023-03-06T00:33:49.609Z,97.06
2023-03-06T00:35:59.067Z,97.42
2023-03-06T00:38:06.971Z,98.46
2023-03-06T00:40:19.857Z,98.57
2023-03-06T00:42:28.388Z,98.45
2023-03-06T00:44:36.539Z,98.31
2023-03-06T00:46:44.559Z,98.47
2023-03-06T00:48:52.251Z,98.75
2023-03-06T00:51:02.196Z,98.68
2023-03-06T00:53:11.193Z,98.72
2023-03-06T00:55:21.993Z,99.43
2023-03-06T00:57:29.908Z,98.98
2023-03-06T00:59:38.818Z,98.71
2023-03-06T01:01:46.918Z,99.59
2023-03-06T01:03:54.921Z,99.58
2023-03-06T01:06:02.765Z,99.23
2023-03-06T01:08:11.195Z,98.34
2023-03-06T01:10:22.286Z,98.75
2023-03-06T01:12:30.165Z,98.47
2023-03-06T01:14:38.580Z,97.62
2023-03-06T01:16:46.736Z,97.68
2023-03-06T01:18:54.709Z,97.93
2023-03-06T01:21:04.497Z,98.33
2023-03-06T01:23:12.357Z,97.99
2023-03-06T01:25:23.082Z,97.55
2023-03-06T01:27:32.132Z,97.10
2023-03-06T01:29:39.958Z,96.80
2023-03-06T01:31:47.854Z,96.64
2023-03-06T01:33:55.999Z,96.22
2023-03-06T01:36:07.416Z,96.31
2023-03-06T01:38:15.590Z,96.99
2023-03-06T01:40:26.025Z,97.00
2023-03-06T01:42:34.184Z,98.15
2023-03-06T01:45:03.662Z,98.40
2023-03-06T01:47:11.806Z,99.22
2023-03-06T01:49:22.962Z,99.70
2023-03-06T01:51:35.208Z,99.59
2023-03-06T01:53:46.239Z,99.81
2023-03-06T01:55:57.312Z,100.00
2023-03-06T01:58:10.244Z,100.00
2023-03-06T02:00:21.401Z,100.00
2023-03-06T02:02:29.613Z,100.00
2023-03-06T02:04:39.705Z,100.00
2023-03-06T02:06:48.306Z,100.00
2023-03-06T02:08:57.060Z,100.00
2023-03-06T02:11:15.159Z,100.00
2023-03-06T02:13:23.144Z,100.00
2023-03-06T02:15:34.100Z,100.00
2023-03-06T02:17:42.357Z,100.00
2023-03-06T02:19:59.354Z,100.00
2023-03-06T02:22:10.109Z,100.00
2023-03-06T02:24:35.345Z,100.00
2023-03-06T02:26:48.072Z,100.00
2023-03-06T02:28:58.540Z,100.00
2023-03-06T02:31:06.763Z,100.00
2023-03-06T02:33:16.635Z,100.00
2023-03-06T02:35:26.841Z,100.00
2023-03-06T02:37:34.739Z,100.00
2023-03-06T02:39:46.444Z,100.00
2023-03-06T02:41:57.486Z,100.00
2023-03-06T02:44:06.042Z,100.00
2023-03-06T02:46:14.489Z,98.92
2023-03-06T02:48:22.930Z,99.26
2023-03-06T02:50:33.775Z,100.00
2023-03-06T02:52:43.814Z,100.00
2023-03-06T02:54:52.202Z,99.86
2023-03-06T02:57:02.718Z,99.58
2023-03-06T02:59:12.396Z,99.66
2023-03-06T03:01:21.083Z,100.00
2023-03-06T03:03:29.396Z,100.00
2023-03-06T03:05:39.017Z,100.00
2023-03-06T03:07:54.365Z,99.44
2023-03-06T03:10:02.088Z,98.71
2023-03-06T03:12:13.953Z,99.33
2023-03-06T03:14:21.904Z,99.89
2023-03-06T03:16:30.218Z,100.00
2023-03-06T03:18:40.191Z,99.59
2023-03-06T03:20:48.052Z,99.70
2023-03-06T03:22:57.899Z,99.91
2023-03-06T03:25:06.554Z,100.00
2023-03-06T03:27:17.583Z,100.00
2023-03-06T03:29:27.954Z,100.00
2023-03-06T03:31:36.297Z,100.00
2023-03-06T03:33:44.911Z,100.00
2023-03-06T03:35:59.819Z,100.00
2023-03-06T03:38:08.438Z,100.00
2023-03-06T03:40:16.825Z,99.40
2023-03-06T03:42:27.625Z,99.31
2023-03-06T03:44:35.846Z,98.89
2023-03-06T03:46:44.173Z,98.90
2023-03-06T03:48:57.189Z,98.74
2023-03-06T03:51:08.997Z,98.87
2023-03-06T03:53:20.274Z,99.50
2023-03-06T03:55:29.147Z,99.61
2023-03-06T03:57:40.248Z,99.85
2023-03-06T03:59:51.238Z,99.82
2023-03-06T04:02:21.966Z,98.72
2023-03-06T04:04:41.504Z,98.13
2023-03-06T04:06:51.252Z,98.05
2023-03-06T04:09:00.568Z,99.21
2023-03-06T04:11:09.247Z,98.73
2023-03-06T04:13:21.096Z,98.73
2023-03-06T04:15:29.691Z,98.66
2023-03-06T04:17:38.297Z,98.95
2023-03-06T04:19:49.140Z,98.53
2023-03-06T04:21:58.268Z,97.38
2023-03-06T04:24:06.550Z,96.14
2023-03-06T04:26:14.509Z,95.79
2023-03-06T04:28:25.499Z,95.53
2023-03-06T04:30:33.988Z,95.34
2023-03-06T04:32:42.575Z,95.97
2023-03-06T04:34:50.987Z,96.43
2023-03-06T04:36:58.807Z,98.39
2023-03-06T04:39:07.818Z,98.20
2023-03-06T04:41:16.297Z,99.09
2023-03-06T04:43:27.238Z,99.56
2023-03-06T04:45:36.934Z,99.20
2023-03-06T04:47:45.491Z,100.00
2023-03-06T04:49:53.345Z,100.00
2023-03-06T04:52:01.491Z,100.00
2023-03-06T04:54:09.516Z,100.00
2023-03-06T04:56:17.421Z,100.00
2023-03-06T04:58:28.112Z,100.00
2023-03-06T05:00:36.291Z,100.00
2023-03-06T05:02:45.716Z,100.00
2023-03-06T05:04:53.622Z,100.00
2023-03-06T05:07:01.503Z,100.00
2023-03-06T05:09:09.578Z,100.00
2023-03-06T05:11:17.587Z,100.00
2023-03-06T05:13:28.854Z,99.95
2023-03-06T05:15:36.791Z,99.48
2023-03-06T05:17:44.854Z,99.91
2023-03-06T05:19:52.659Z,99.12
2023-03-06T05:22:00.822Z,98.41
2023-03-06T05:24:09.397Z,98.30
2023-03-06T05:26:18.284Z,98.35
2023-03-06T05:28:29.696Z,99.45
2023-03-06T05:30:37.940Z,98.34
2023-03-06T05:32:45.943Z,98.50
2023-03-06T05:34:53.724Z,98.29
2023-03-06T05:37:01.960Z,98.38
2023-03-06T05:39:09.757Z,98.43
2023-03-06T05:41:18.153Z,97.86
2023-03-06T05:43:28.984Z,97.99
2023-03-06T05:45:37.011Z,97.96
2023-03-06T05:47:45.136Z,98.65
2023-03-06T05:49:53.226Z,99.02
2023-03-06T05:52:01.184Z,98.05
2023-03-06T05:54:09.567Z,98.05
2023-03-06T05:56:17.536Z,98.09
2023-03-06T05:58:28.159Z,98.27
2023-03-06T06:00:35.977Z,98.99
2023-03-06T06:02:44.038Z,98.13
2023-03-06T06:04:52.056Z,97.44
2023-03-06T06:07:01.981Z,97.46
2023-03-06T06:09:12.280Z,97.23
2023-03-06T06:11:21.426Z,96.38
2023-03-06T06:13:35.347Z,96.11
2023-03-06T06:15:43.201Z,94.49
2023-03-06T06:17:51.170Z,94.19
2023-03-06T06:19:59.216Z,92.50
2023-03-06T06:22:07.868Z,93.88
2023-03-06T06:24:16.227Z,91.97
2023-03-06T06:26:24.024Z,91.42
2023-03-06T06:28:35.128Z,91.09
2023-03-06T06:30:43.393Z,91.71
2023-03-06T06:32:51.326Z,92.51
2023-03-06T06:34:59.599Z,92.61
2023-03-06T06:37:07.557Z,91.68
2023-03-06T06:39:18.974Z,91.74
2023-03-06T06:41:46.129Z,92.38
2023-03-06T06:43:59.075Z,92.04
2023-03-06T06:46:39.744Z,92.39
2023-03-06T06:48:37.834Z,92.79
2023-03-06T06:50:45.705Z,92.65
2023-03-06T06:52:53.614Z,93.11
2023-03-06T06:55:01.474Z,93.27
2023-03-06T06:57:09.603Z,93.37
2023-03-06T06:59:20.171Z,92.30
2023-03-06T07:01:28.569Z,93.28
2023-03-06T07:03:36.936Z,95.72
2023-03-06T07:05:44.705Z,97.68
2023-03-06T07:07:53.791Z,99.19
2023-03-06T07:10:01.692Z,96.76
2023-03-06T07:12:10.681Z,93.57
2023-03-06T07:14:21.718Z,93.94
2023-03-06T07:16:30.923Z,93.52
2023-03-06T07:18:38.713Z,92.87
2023-03-06T07:20:46.762Z,93.05
2023-03-06T07:22:54.704Z,92.65
2023-03-06T07:25:03.436Z,92.54
2023-03-06T07:27:11.373Z,90.85
2023-03-06T07:29:22.183Z,91.08
2023-03-06T07:31:30.618Z,89.59
2023-03-06T07:33:38.570Z,89.49
2023-03-06T07:35:47.255Z,89.11
2023-03-06T07:37:56.134Z,89.42
2023-03-06T07:40:06.493Z,90.35
2023-03-06T07:42:15.658Z,90.39
2023-03-06T07:44:40.121Z,90.04
2023-03-06T07:46:47.989Z,89.74
2023-03-06T07:48:56.420Z,88.90
2023-03-06T07:51:05.774Z,88.08
2023-03-06T07:53:13.994Z,87.61
2023-03-06T07:55:22.134Z,86.74
2023-03-06T07:57:29.972Z,86.53
2023-03-06T07:59:40.418Z,86.92
2023-03-06T08:01:48.591Z,87.39
2023-03-06T08:03:56.980Z,87.88
2023-03-06T08:06:10.066Z,88.48
2023-03-06T08:08:17.957Z,88.00
2023-03-06T08:10:26.111Z,87.23
2023-03-06T08:12:33.957Z,86.66
2023-03-06T08:14:44.748Z,86.68
2023-03-06T08:16:52.942Z,85.29
2023-03-06T08:19:01.280Z,83.78
2023-03-06T08:21:11.711Z,80.46
2023-03-06T08:23:19.612Z,79.57
2023-03-06T08:25:27.644Z,77.32
2023-03-06T08:27:35.963Z,77.13
2023-03-06T08:29:46.543Z,75.79
2023-03-06T08:31:54.708Z,76.16
2023-03-06T08:34:05.131Z,75.00
2023-03-06T08:36:13.044Z,73.59
2023-03-06T08:38:20.907Z,74.98
2023-03-06T08:40:30.655Z,70.00
2023-03-06T08:42:38.855Z,71.41
2023-03-06T08:44:49.967Z,69.84
2023-03-06T08:46:57.788Z,69.51
2023-03-06T08:49:06.251Z,69.69
2023-03-06T08:51:15.476Z,68.06
2023-03-06T08:53:40.327Z,68.31
2023-03-06T08:55:50.655Z,66.87
2023-03-06T08:57:58.756Z,66.94
2023-03-06T09:00:11.260Z,66.85
2023-03-06T09:02:19.187Z,64.87
2023-03-06T09:04:27.268Z,62.64
2023-03-06T09:06:38.623Z,61.25
2023-03-06T09:08:46.440Z,60.86
2023-03-06T09:10:54.356Z,60.71
2023-03-06T09:13:02.570Z,59.56
2023-03-06T09:15:15.896Z,56.81
2023-03-06T09:17:24.132Z,57.35
2023-03-06T09:19:36.092Z,57.49
2023-03-06T09:21:43.975Z,56.19
2023-03-06T09:23:53.378Z,58.47
2023-03-06T09:26:05.225Z,58.13
2023-03-06T09:28:16.140Z,56.77
2023-03-06T09:30:26.817Z,57.88
2023-03-06T09:32:34.749Z,57.13
2023-03-06T09:34:42.963Z,56.30
2023-03-06T09:36:56.512Z,57.50
2023-03-06T09:39:05.271Z,57.73
2023-03-06T09:41:30.150Z,57.84
2023-03-06T09:43:40.979Z,58.22
2023-03-06T09:45:51.891Z,58.21
2023-03-06T09:48:05.624Z,58.64
2023-03-06T09:50:31.687Z,59.81
2023-03-06T09:52:47.520Z,59.49
2023-03-06T09:54:58.365Z,59.53
2023-03-06T09:57:06.626Z,59.64
2023-03-06T09:59:19.884Z,59.15
2023-03-06T10:01:35.016Z,58.50
2023-03-06T10:03:51.533Z,58.83
2023-03-06T10:06:04.435Z,59.18
2023-03-06T10:08:27.012Z,60.19
2023-03-06T10:10:45.840Z,59.07
2023-03-06T10:13:03.928Z,59.01
2023-03-06T10:15:18.809Z,60.34
2023-03-06T10:17:34.001Z,60.62
2023-03-06T10:19:42.541Z,59.40
2023-03-06T10:21:59.122Z,59.33
2023-03-06T10:24:19.852Z,60.12
2023-03-06T10:26:30.393Z,59.60
2023-03-06T10:28:42.349Z,61.38
2023-03-06T10:30:58.686Z,60.92
2023-03-06T10:33:12.653Z,59.46
2023-03-06T10:35:23.578Z,60.07
2023-03-06T10:37:32.696Z,60.79
2023-03-06T10:39:42.345Z,60.84
2023-03-06T10:41:51.615Z,61.99
2023-03-06T10:44:25.034Z,62.42
2023-03-06T10:46:36.238Z,61.17
2023-03-06T10:48:59.609Z,59.54
2023-03-06T10:51:19.571Z,60.27
2023-03-06T10:53:29.828Z,59.15
2023-03-06T10:55:39.519Z,56.46
2023-03-06T10:57:47.485Z,57.44
2023-03-06T10:59:57.268Z,58.11
2023-03-06T11:02:27.495Z,59.37
2023-03-06T11:04:39.429Z,60.25
2023-03-06T11:06:47.453Z,60.39
2023-03-06T11:08:55.361Z,60.37
2023-03-06T11:11:05.492Z,60.75
2023-03-06T11:13:24.345Z,60.54
2023-03-06T11:15:32.726Z,59.63
2023-03-06T11:17:50.453Z,59.22
2023-03-06T11:20:19.099Z,58.90
2023-03-06T11:22:27.443Z,58.87
2023-03-06T11:24:40.289Z,59.48
2023-03-06T11:26:52.502Z,59.30
2023-03-06T11:29:29.634Z,58.22
2023-03-06T11:31:41.403Z,58.63
2023-03-06T11:33:55.171Z,58.59
2023-03-06T11:36:07.643Z,57.90
2023-03-06T11:38:21.991Z,57.59
2023-03-06T11:40:35.100Z,58.21
2023-03-06T11:42:48.345Z,57.31
2023-03-06T11:45:15.672Z,55.99
2023-03-06T11:47:28.301Z,57.17
2023-03-06T11:49:43.448Z,56.21
2023-03-06T11:51:58.171Z,56.15
2023-03-06T11:54:06.402Z,55.46
2023-03-06T11:56:28.003Z,55.04
2023-03-06T11:58:47.053Z,55.00
2023-03-06T12:01:01.949Z,53.12
2023-03-06T12:03:35.893Z,53.27
2023-03-06T12:05:49.048Z,53.08
2023-03-06T12:08:09.970Z,54.73
2023-03-06T12:10:23.787Z,54.42
2023-03-06T12:13:04.172Z,54.49
2023-03-06T12:15:22.716Z,52.93
2023-03-06T12:17:42.947Z,51.74
2023-03-06T12:20:26.235Z,52.39
2023-03-06T12:22:53.412Z,52.00
2023-03-06T12:25:33.826Z,50.73
2023-03-06T12:27:48.599Z,49.81
2023-03-06T12:30:13.393Z,50.15
2023-03-06T12:32:35.500Z,50.41
2023-03-06T12:35:02.768Z,51.38
2023-03-06T12:37:23.266Z,51.54
2023-03-06T12:39:42.121Z,51.73
2023-03-06T12:42:22.954Z,50.01
2023-03-06T12:45:07.792Z,50.07
2023-03-06T12:47:22.389Z,51.27
2023-03-06T12:49:33.395Z,50.38
2023-03-06T12:51:42.072Z,50.08
2023-03-06T12:53:51.001Z,51.08
2023-03-06T12:56:00.803Z,50.74
2023-03-06T12:58:49.189Z,52.45
2023-03-06T13:01:07.820Z,52.83
2023-03-06T13:03:22.335Z,53.11
2023-03-06T13:05:55.291Z,53.59
2023-03-06T13:08:44.327Z,53.81
2023-03-06T13:11:18.761Z,54.38
2023-03-06T13:13:35.354Z,54.04
2023-03-06T13:15:49.541Z,54.41
2023-03-06T13:17:57.418Z,53.42
2023-03-06T13:20:30.080Z,53.33
2023-03-06T13:22:38.431Z,53.73
2023-03-06T13:24:46.696Z,53.41
2023-03-06T13:27:00.868Z,52.75
2023-03-06T13:29:43.633Z,52.82
2023-03-06T13:32:21.926Z,53.63
2023-03-06T13:34:39.880Z,54.99
2023-03-06T13:36:48.251Z,54.31
2023-03-06T13:39:08.756Z,54.64
2023-03-06T13:41:55.111Z,55.12
2023-03-06T13:44:23.845Z,54.16
2023-03-06T13:46:35.441Z,55.40
2023-03-06T13:48:47.068Z,55.37
2023-03-06T13:50:56.188Z,56.00
2023-03-06T13:53:30.093Z,55.38
2023-03-06T13:55:47.570Z,54.82
2023-03-06T13:58:11.881Z,54.96
2023-03-06T14:00:39.293Z,54.83
2023-03-06T14:03:04.426Z,55.20
2023-03-06T14:05:28.340Z,55.09
2023-03-06T14:07:41.615Z,54.95
2023-03-06T14:09:54.424Z,56.12
2023-03-06T14:12:10.454Z,56.42
2023-03-06T14:14:18.467Z,57.44
2023-03-06T14:16:37.591Z,56.69
2023-03-06T14:18:58.238Z,56.38
2023-03-06T14:21:17.507Z,55.46
2023-03-06T14:23:31.187Z,56.05
2023-03-06T14:25:39.708Z,55.47
2023-03-06T14:27:51.645Z,55.37
2023-03-06T14:30:09.065Z,54.69
2023-03-06T14:32:21.019Z,54.86
2023-03-06T14:34:31.614Z,54.54
2023-03-06T14:36:48.839Z,55.05
2023-03-06T14:39:00.104Z,55.34
2023-03-06T14:41:11.775Z,55.16
2023-03-06T14:43:27.316Z,56.29
2023-03-06T14:45:35.244Z,54.92
2023-03-06T14:47:43.219Z,54.81
2023-03-06T14:49:51.276Z,55.32
2023-03-06T14:52:04.172Z,55.85
2023-03-06T14:54:19.706Z,54.82
2023-03-06T14:56:30.198Z,54.65
2023-03-06T14:58:41.401Z,54.33
2023-03-06T15:00:54.685Z,54.90
2023-03-06T15:03:03.334Z,54.87
2023-03-06T15:05:22.620Z,55.64
2023-03-06T15:07:35.358Z,54.84
2023-03-06T15:09:47.528Z,55.41
2023-03-06T15:11:57.972Z,55.60
2023-03-06T15:14:06.806Z,55.59
2023-03-06T15:16:30.365Z,56.08
2023-03-06T15:18:39.765Z,56.45
2023-03-06T15:20:56.513Z,57.41
2023-03-06T15:23:16.372Z,56.91
2023-03-06T15:25:27.560Z,56.09
2023-03-06T15:27:35.865Z,56.21
2023-03-06T15:29:43.670Z,57.39
2023-03-06T15:31:51.906Z,56.98
2023-03-06T15:34:07.910Z,57.42
2023-03-06T15:36:27.694Z,57.25
2023-03-06T15:38:40.991Z,57.66
2023-03-06T15:40:58.508Z,58.24
2023-03-06T15:43:06.531Z,58.43
2023-03-06T15:45:20.031Z,58.44
2023-03-06T15:47:28.004Z,59.56
2023-03-06T15:49:35.725Z,59.16
2023-03-06T15:51:43.639Z,58.62
2023-03-06T15:53:59.789Z,59.90
2023-03-06T15:56:15.729Z,60.57
2023-03-06T15:58:26.932Z,61.01
2023-03-06T16:00:38.537Z,62.04
2023-03-06T16:02:47.305Z,62.49
2023-03-06T16:04:55.597Z,63.04
2023-03-06T16:07:03.460Z,63.79
2023-03-06T16:09:15.543Z,64.43
2023-03-06T16:11:35.437Z,64.69
2023-03-06T16:13:50.024Z,65.51
2023-03-06T16:15:58.068Z,65.91
2023-03-06T16:18:06.299Z,66.28
2023-03-06T16:20:18.292Z,68.42
2023-03-06T16:22:26.098Z,69.01
2023-03-06T16:24:37.307Z,70.31
2023-03-06T16:26:47.532Z,71.04
2023-03-06T16:28:55.476Z,72.29
2023-03-06T16:31:03.266Z,71.87
2023-03-06T16:33:12.928Z,71.87
2023-03-06T16:35:21.526Z,73.07
2023-03-06T16:37:29.472Z,73.81
2023-03-06T16:39:40.030Z,73.69
2023-03-06T16:41:49.492Z,73.61
2023-03-06T16:43:57.506Z,73.27
2023-03-06T16:46:08.079Z,75.61
2023-03-06T16:48:20.045Z,76.62
2023-03-06T16:50:30.334Z,76.59
2023-03-06T16:52:38.421Z,76.47
2023-03-06T16:54:48.826Z,76.90
2023-03-06T16:56:56.629Z,77.15
2023-03-06T16:59:04.711Z,76.74
2023-03-06T17:01:19.475Z,78.18
2023-03-06T17:03:27.384Z,76.92
2023-03-06T17:05:36.923Z,77.25
2023-03-06T17:07:44.698Z,77.51
2023-03-06T17:09:55.421Z,78.59
2023-03-06T17:12:03.365Z,79.33
2023-03-06T17:14:11.180Z,79.20
2023-03-06T17:16:19.583Z,79.85
2023-03-06T17:18:28.407Z,79.69
2023-03-06T17:20:36.409Z,80.57
2023-03-06T17:22:44.459Z,80.27
2023-03-06T17:24:55.186Z,80.47
2023-03-06T17:27:03.276Z,80.30
2023-03-06T17:29:12.231Z,80.70
2023-03-06T17:31:22.640Z,81.37
2023-03-06T17:33:30.671Z,81.48
2023-03-06T17:35:38.713Z,81.38
2023-03-06T17:37:46.578Z,81.76
2023-03-06T17:39:57.291Z,82.37
2023-03-06T17:42:05.598Z,82.79
2023-03-06T17:44:16.345Z,82.93
2023-03-06T17:46:24.546Z,82.96
2023-03-06T17:48:32.536Z,82.11
2023-03-06T17:50:40.683Z,83.35
2023-03-06T17:52:48.741Z,84.17
2023-03-06T17:54:59.453Z,84.75
2023-03-06T17:57:07.726Z,85.11
2023-03-06T17:59:16.013Z,85.47
2023-03-06T18:01:27.768Z,85.70
2023-03-06T18:03:38.219Z,86.50
2023-03-06T18:05:46.357Z,85.96
2023-03-06T18:07:54.659Z,86.17
2023-03-06T18:10:05.335Z,86.43
2023-03-06T18:12:13.269Z,86.69
2023-03-06T18:14:21.171Z,86.74
2023-03-06T18:16:30.071Z,86.09
2023-03-06T18:18:39.059Z,86.22
2023-03-06T18:20:47.421Z,86.37
2023-03-06T18:22:55.524Z,86.99
2023-03-06T18:25:06.379Z,87.11
2023-03-06T18:27:14.395Z,86.19
2023-03-06T18:29:22.234Z,86.29
2023-03-06T18:31:34.164Z,86.63
2023-03-06T18:33:42.431Z,86.91
2023-03-06T18:35:50.534Z,86.35
2023-03-06T18:37:58.657Z,86.20
2023-03-06T18:40:11.146Z,86.88
2023-03-06T18:42:19.065Z,86.74
2023-03-06T18:44:27.149Z,86.88
2023-03-06T18:46:36.989Z,86.11
2023-03-06T18:48:45.089Z,85.81
2023-03-06T18:50:53.527Z,85.95
2023-03-06T18:53:01.364Z,86.13
2023-03-06T18:55:13.315Z,86.51
2023-03-06T18:57:21.197Z,85.89
2023-03-06T18:59:29.295Z,86.84
2023-03-06T19:01:37.862Z,86.67
2023-03-06T19:03:46.375Z,87.91
2023-03-06T19:05:54.534Z,87.01
2023-03-06T19:08:02.648Z,87.37
2023-03-06T19:10:15.456Z,87.33
2023-03-06T19:12:23.584Z,88.24
2023-03-06T19:14:31.648Z,87.97
2023-03-06T19:16:39.618Z,86.80
2023-03-06T19:18:47.779Z,86.61
2023-03-06T19:20:56.790Z,86.02
2023-03-06T19:23:05.146Z,86.84
2023-03-06T19:25:16.417Z,87.10
2023-03-06T19:27:24.486Z,87.10
2023-03-06T19:29:32.687Z,87.41
2023-03-06T19:31:40.901Z,87.86
2023-03-06T19:33:49.833Z,88.24
2023-03-06T19:35:58.286Z,88.08
2023-03-06T19:38:06.698Z,88.09
2023-03-06T19:40:19.692Z,87.87
2023-03-06T19:42:28.191Z,87.83
2023-03-06T19:44:36.261Z,87.79
2023-03-06T19:46:44.199Z,88.44
2023-03-06T19:48:56.604Z,88.39
2023-03-06T19:51:08.480Z,86.84
2023-03-06T19:53:17.006Z,87.38
2023-03-06T19:55:28.825Z,87.63
2023-03-06T19:57:36.878Z,86.88
2023-03-06T19:59:44.874Z,86.51
2023-03-06T20:01:53.071Z,86.55
2023-03-06T20:04:02.021Z,87.44
2023-03-06T20:06:15.666Z,87.21
2023-03-06T20:08:23.859Z,86.18
2023-03-06T20:10:34.758Z,87.36
2023-03-06T20:12:42.734Z,86.75
2023-03-06T20:14:51.125Z,86.98
2023-03-06T20:16:59.128Z,86.13
2023-03-06T20:19:08.863Z,85.95
2023-03-06T20:21:18.024Z,86.15
2023-03-06T20:23:25.895Z,85.54
2023-03-06T20:25:37.840Z,86.95
2023-03-06T20:27:45.700Z,86.95
2023-03-06T20:29:53.583Z,86.15
2023-03-06T20:32:01.909Z,85.10
2023-03-06T20:34:10.887Z,85.80
2023-03-06T20:36:20.779Z,85.63
2023-03-06T20:38:28.977Z,84.39
2023-03-06T20:40:55.581Z,84.61
2023-03-06T20:43:10.551Z,85.06
2023-03-06T20:45:18.445Z,84.86
2023-03-06T20:47:26.571Z,85.88
2023-03-06T20:49:36.833Z,85.92
2023-03-06T20:51:44.822Z,84.81
2023-03-06T20:53:55.282Z,86.12
2023-03-06T20:56:06.683Z,85.48
2023-03-06T20:58:14.843Z,85.48
2023-03-06T21:00:23.860Z,85.64
2023-03-06T21:02:31.822Z,86.63
2023-03-06T21:04:41.201Z,86.48
2023-03-06T21:06:49.959Z,86.63
2023-03-06T21:08:58.132Z,87.51
2023-03-06T21:11:08.989Z,87.16
2023-03-06T21:13:17.718Z,87.50
2023-03-06T21:15:30.135Z,88.12
2023-03-06T21:17:40.053Z,88.44
2023-03-06T21:19:48.792Z,89.17
2023-03-06T21:21:56.586Z,88.50
2023-03-06T21:24:05.259Z,88.11
2023-03-06T21:26:20.822Z,87.95
2023-03-06T21:28:28.688Z,89.08
2023-03-06T21:30:37.817Z,89.87
2023-03-06T21:32:45.812Z,89.75
2023-03-06T21:34:53.810Z,90.00
2023-03-06T21:37:02.203Z,89.92
2023-03-06T21:39:10.286Z,89.94
2023-03-06T21:41:24.358Z,89.47
2023-03-06T21:43:33.762Z,89.92
2023-03-06T21:45:46.290Z,90.24
2023-03-06T21:47:54.249Z,90.63
2023-03-06T21:50:03.942Z,90.50
2023-03-06T21:52:11.841Z,91.55
2023-03-06T21:54:20.202Z,91.97
2023-03-06T21:56:30.802Z,91.76
2023-03-06T21:58:39.806Z,91.45
2023-03-06T22:00:49.364Z,91.56
2023-03-06T22:02:57.570Z,91.97
2023-03-06T22:05:06.197Z,92.21
2023-03-06T22:07:14.140Z,91.49
2023-03-06T22:09:22.927Z,91.94
2023-03-06T22:11:37.115Z,91.95
2023-03-06T22:13:45.678Z,93.02
2023-03-06T22:15:55.361Z,93.69
2023-03-06T22:18:03.158Z,93.34
2023-03-06T22:20:13.250Z,93.34
2023-03-06T22:22:21.259Z,92.54
2023-03-06T22:24:29.064Z,92.14
2023-03-06T22:26:39.822Z,92.74
2023-03-06T22:28:47.844Z,92.90
2023-03-06T22:30:55.721Z,92.68
2023-03-06T22:33:03.646Z,92.37
2023-03-06T22:35:12.153Z,91.91
2023-03-06T22:37:19.941Z,92.64
2023-03-06T22:39:27.837Z,91.88
2023-03-06T22:41:35.786Z,92.41
2023-03-06T22:43:46.893Z,91.75
2023-03-06T22:45:54.815Z,91.69
2023-03-06T22:48:10.892Z,91.36
2023-03-06T22:50:19.786Z,92.18
2023-03-06T22:52:27.612Z,90.67
2023-03-06T22:54:35.508Z,90.73
2023-03-06T22:56:44.713Z,90.40
2023-03-06T22:58:55.396Z,90.68
2023-03-06T23:01:10.002Z,90.80
2023-03-06T23:03:18.087Z,91.18
2023-03-06T23:05:27.901Z,91.61
2023-03-06T23:07:37.238Z,91.23
2023-03-06T23:09:45.419Z,92.07
2023-03-06T23:12:12.165Z,90.81
2023-03-06T23:14:41.489Z,90.14
2023-03-06T23:17:08.316Z,90.77
2023-03-06T23:19:35.097Z,90.59
2023-03-06T23:22:01.802Z,90.99
2023-03-06T23:24:28.861Z,90.64
2023-03-06T23:26:37.478Z,91.23
2023-03-06T23:28:45.722Z,91.41
2023-03-06T23:30:56.366Z,91.11
2023-03-06T23:33:05.355Z,90.95
2023-03-06T23:35:13.980Z,89.79
2023-03-06T23:37:21.966Z,89.13
2023-03-06T23:39:30.497Z,89.49
2023-03-06T23:41:38.684Z,89.25
2023-03-06T23:43:47.512Z,89.04
2023-03-06T23:45:59.287Z,88.26
2023-03-06T23:48:08.974Z,88.20
2023-03-06T23:50:17.481Z,87.82
2023-03-06T23:52:25.460Z,88.25
2023-03-06T23:54:34.430Z,88.44
2023-03-06T23:56:42.569Z,88.74
2023-03-06T23:58:50.521Z,89.12
